Time;durP1;ratioP1;P1;durP2;ratioP2;P2;SDS_P1;SDS_P2;PMS_P1;PMS_P2;Temp;Humidity;BMP_temperature;BMP_pressure;BME280_temperature;BME280_humidity;BME280_pressure;Samples;Min_cycle;Max_cycle;Signal;HPM_P1;HPM_P2
2021/12/11 00:00:35;;;;;;;;;4.50;4.00;;;;;7.21;100.00;100775.19;5018813;28;45363;-75
2021/12/11 00:03:15;;;;;;;;;5.00;3.00;;;;;7.16;100.00;100773.13;5019293;28;45326;-77
2021/12/11 00:05:43;;;;;;;;;5.25;5.25;;;;;7.22;100.00;100782.13;5019623;28;45243;-75
2021/12/11 00:08:10;;;;;;;;;6.50;4.25;;;;;7.23;100.00;100786.47;5018151;28;46432;-76
2021/12/11 00:10:42;;;;;;;;;7.75;6.75;;;;;7.21;100.00;100790.63;5018301;28;45392;-78
2021/12/11 00:13:13;;;;;;;;;3.25;3.25;;;;;7.17;100.00;100798.09;5034502;28;45449;-77
2021/12/11 00:15:44;;;;;;;;;3.50;3.50;;;;;7.20;100.00;100806.88;5019505;28;45237;-77
2021/12/11 00:18:17;;;;;;;;;7.00;4.00;;;;;7.21;100.00;100810.31;5001003;28;45441;-75
2021/12/11 00:20:51;;;;;;;;;6.50;4.00;;;;;7.25;100.00;100820.03;5018416;28;45862;-75
2021/12/11 00:23:20;;;;;;;;;7.25;5.50;;;;;7.18;100.00;100811.03;5001182;28;45704;-80
2021/12/11 00:25:46;;;;;;;;;8.00;4.75;;;;;7.16;100.00;100819.50;5018680;28;45443;-76
2021/12/11 00:28:12;;;;;;;;;4.75;4.25;;;;;7.26;100.00;100824.38;5018726;28;46041;-75
2021/12/11 00:30:42;;;;;;;;;5.50;5.00;;;;;7.26;100.00;100829.53;5018432;28;45262;-75
2021/12/11 00:33:20;;;;;;;;;4.25;3.00;;;;;7.25;100.00;100836.34;5018737;28;45364;-74
2021/12/11 00:35:47;;;;;;;;;7.25;4.75;;;;;7.24;100.00;100839.72;4999693;28;45395;-75
2021/12/11 00:38:21;;;;;;;;;5.50;4.00;;;;;7.20;100.00;100834.28;5018302;28;45352;-74
2021/12/11 00:40:49;;;;;;;;;8.00;4.75;;;;;7.20;100.00;100839.44;5018266;28;45301;-76
2021/12/11 00:43:21;;;;;;;;;7.00;4.00;;;;;7.17;100.00;100840.16;5018650;28;45368;-74
2021/12/11 00:45:49;;;;;;;;;4.50;3.25;;;;;7.26;100.00;100863.88;5018233;28;45398;-75
2021/12/11 00:48:19;;;;;;;;;7.25;6.00;;;;;7.18;100.00;100856.53;5018239;28;45603;-74
2021/12/11 00:50:53;;;;;;;;;3.50;3.00;;;;;7.19;100.00;100871.13;4999781;28;45952;-74
2021/12/11 00:53:22;;;;;;;;;4.50;4.50;;;;;7.18;100.00;100872.84;5018214;28;45411;-74
2021/12/11 00:55:55;;;;;;;;;5.25;4.00;;;;;7.18;100.00;100877.13;5017545;28;45544;-74
2021/12/11 00:58:24;;;;;;;;;4.25;4.25;;;;;7.19;100.00;100878.88;5017881;28;45495;-74
2021/12/11 01:01:08;;;;;;;;;4.25;3.75;;;;;7.17;100.00;100883.94;5017226;28;45843;-74
2021/12/11 01:03:56;;;;;;;;;2.50;2.25;;;;;7.13;100.00;100876.81;5018382;28;45170;-75
2021/12/11 01:06:24;;;;;;;;;8.00;3.50;;;;;7.18;100.00;100890.00;5018267;28;45413;-74
2021/12/11 01:08:59;;;;;;;;;5.25;3.50;;;;;7.20;100.00;100896.09;4999801;28;47063;-74
2021/12/11 01:11:33;;;;;;;;;3.25;2.25;;;;;7.19;100.00;100894.31;5017523;28;45963;-74
2021/12/11 01:14:25;;;;;;;;;5.50;5.25;;;;;7.20;100.00;100908.97;5018365;28;45355;-75
2021/12/11 01:16:58;;;;;;;;;10.50;5.75;;;;;7.13;100.00;100908.63;5018270;28;45257;-73
2021/12/11 01:19:25;;;;;;;;;7.50;4.00;;;;;7.09;100.00;100910.91;5017416;28;45464;-74
2021/12/11 01:21:59;;;;;;;;;4.75;4.75;;;;;7.04;100.00;100918.38;5017163;28;45704;-74
2021/12/11 01:24:44;;;;;;;;;1.75;1.75;;;;;7.00;100.00;100926.69;5017639;28;45401;-73
2021/12/11 01:27:14;;;;;;;;;2.75;1.50;;;;;7.03;100.00;100933.69;5017783;28;45248;-74
2021/12/11 01:29:41;;;;;;;;;6.75;3.25;;;;;6.98;100.00;100928.25;5017701;28;45968;-74
2021/12/11 01:32:07;;;;;;;;;3.00;3.00;;;;;6.96;100.00;100927.31;4999778;28;45798;-74
2021/12/11 01:34:35;;;;;;;;;5.50;3.00;;;;;6.91;100.00;100939.00;5017067;28;45427;-74
2021/12/11 01:37:02;;;;;;;;;6.75;4.00;;;;;6.93;100.00;100948.56;5017325;28;45597;-74
2021/12/11 01:39:31;;;;;;;;;7.00;3.75;;;;;6.89;100.00;100941.47;5017027;28;46154;-73
2021/12/11 01:41:58;;;;;;;;;2.00;2.00;;;;;6.92;100.00;100953.66;5017014;28;45825;-73
2021/12/11 01:44:30;;;;;;;;;2.50;2.50;;;;;6.87;100.00;100960.19;5017771;28;45263;-73
2021/12/11 01:47:05;;;;;;;;;5.75;1.50;;;;;6.81;100.00;100961.59;5017776;28;45519;-73
2021/12/11 01:49:33;;;;;;;;;2.75;2.75;;;;;6.86;100.00;100964.44;5017371;28;45383;-73
2021/12/11 01:52:08;;;;;;;;;3.50;2.50;;;;;6.91;100.00;100975.03;5016977;28;45704;-74
2021/12/11 01:54:39;;;;;;;;;2.50;2.25;;;;;6.80;100.00;100956.34;5017728;28;45230;-73
2021/12/11 01:57:14;;;;;;;;;3.00;2.00;;;;;6.91;100.00;100967.31;5017483;28;45383;-77
2021/12/11 01:59:43;;;;;;;;;6.00;3.50;;;;;6.88;100.00;100975.72;5017152;28;45544;-76
2021/12/11 02:02:19;;;;;;;;;3.00;3.00;;;;;6.95;100.00;100982.16;5017243;28;45842;-77
2021/12/11 02:04:47;;;;;;;;;3.50;2.25;;;;;6.95;100.00;100983.03;5017115;28;45349;-76
2021/12/11 02:07:21;;;;;;;;;6.25;3.25;;;;;6.99;100.00;100993.53;5017097;28;45253;-75
2021/12/11 02:09:56;;;;;;;;;4.50;3.75;;;;;6.96;100.00;100997.69;5016378;28;46090;-79
2021/12/11 02:12:33;;;;;;;;;6.00;2.75;;;;;6.93;100.00;100989.75;5016813;28;45272;-73
2021/12/11 02:15:01;;;;;;;;;4.50;3.50;;;;;6.97;100.00;101001.13;5016548;28;45304;-73
2021/12/11 02:17:32;;;;;;;;;2.00;2.00;;;;;6.98;100.00;100995.19;5016802;28;45527;-73
2021/12/11 02:20:00;;;;;;;;;4.00;2.50;;;;;6.91;100.00;101003.34;5017035;28;45976;-78
2021/12/11 02:22:36;;;;;;;;;6.25;3.50;;;;;6.90;100.00;101012.75;5016466;28;45328;-76
2021/12/11 02:25:08;;;;;;;;;2.00;2.00;;;;;6.92;100.00;101023.13;5016515;28;45281;-76
2021/12/11 02:27:56;;;;;;;;;6.00;4.25;;;;;6.90;100.00;101028.19;5016805;28;45404;-75
2021/12/11 02:30:33;;;;;;;;;3.00;3.00;;;;;6.87;100.00;101021.94;5016439;28;45410;-75
2021/12/11 02:33:16;;;;;;;;;5.25;2.25;;;;;6.86;100.00;101038.22;5016124;28;45230;-76
2021/12/11 02:35:52;;;;;;;;;1.75;1.50;;;;;6.82;100.00;101035.44;4998363;28;45354;-76
2021/12/11 02:38:47;;;;;;;;;3.25;3.00;;;;;6.81;100.00;101037.88;5016323;28;45408;-76
2021/12/11 02:41:19;;;;;;;;;3.50;3.50;;;;;6.80;100.00;101039.59;5013968;28;45536;-76
2021/12/11 02:43:55;;;;;;;;;4.50;3.25;;;;;6.82;100.00;101042.25;5016368;28;45370;-75
2021/12/11 02:46:38;;;;;;;;;3.25;2.00;;;;;6.74;100.00;101036.63;5016291;28;45539;-75
2021/12/11 02:49:20;;;;;;;;;3.50;2.50;;;;;6.75;100.00;101043.53;5016759;28;45313;-75
2021/12/11 02:52:08;;;;;;;;;3.25;3.00;;;;;6.78;100.00;101046.31;4997676;28;46398;-78
2021/12/11 02:54:39;;;;;;;;;2.50;2.00;;;;;6.79;100.00;101039.50;5015180;28;45898;-75
2021/12/11 02:57:29;;;;;;;;;5.25;3.75;;;;;6.79;100.00;101045.53;4998100;28;45223;-77
2021/12/11 02:59:55;;;;;;;;;6.00;2.75;;;;;6.75;100.00;101052.94;4999226;28;45599;-78
2021/12/11 03:02:26;;;;;;;;;3.00;2.00;;;;;6.72;100.00;101055.31;5016009;28;45494;-75
2021/12/11 03:04:57;;;;;;;;;2.50;2.50;;;;;6.63;100.00;101056.50;5016678;28;45298;-75
2021/12/11 03:07:34;;;;;;;;;3.00;2.00;;;;;6.64;100.00;101072.84;4998371;28;45555;-76
2021/12/11 03:10:01;;;;;;;;;4.00;2.75;;;;;6.61;100.00;101075.22;5015925;28;45524;-75
2021/12/11 03:12:27;;;;;;;;;7.00;3.50;;;;;6.53;100.00;101073.84;5016232;28;46117;-77
2021/12/11 03:14:53;;;;;;;;;4.75;3.75;;;;;6.45;100.00;101084.50;5016082;28;45395;-75
2021/12/11 03:17:21;;;;;;;;;4.75;3.00;;;;;6.47;100.00;101085.50;5016343;28;45380;-76
2021/12/11 03:19:48;;;;;;;;;7.75;2.00;;;;;6.47;100.00;101093.22;5015676;28;45481;-75
2021/12/11 03:22:20;;;;;;;;;3.75;2.25;;;;;6.42;100.00;101097.19;5015928;28;45265;-78
2021/12/11 03:24:48;;;;;;;;;5.00;4.25;;;;;6.44;100.00;101104.97;5015721;28;45480;-77
2021/12/11 03:27:14;;;;;;;;;5.00;3.00;;;;;6.45;100.00;101117.94;5016185;28;45361;-75
2021/12/11 03:29:41;;;;;;;;;3.00;2.25;;;;;6.46;100.00;101109.44;5016344;28;45285;-74
2021/12/11 03:32:10;;;;;;;;;2.00;2.00;;;;;6.44;100.00;101118.72;5016040;28;46136;-81
2021/12/11 03:34:37;;;;;;;;;3.75;3.75;;;;;6.21;100.00;101075.19;5015672;28;45450;-78
2021/12/11 03:37:04;;;;;;;;;4.25;1.25;;;;;6.44;100.00;101131.56;5000992;28;45588;-78
2021/12/11 03:39:38;;;;;;;;;3.25;2.00;;;;;6.46;100.00;101135.16;5018551;28;45233;-77
2021/12/11 03:42:10;;;;;;;;;2.75;2.75;;;;;6.52;100.00;101133.78;5016117;28;46193;-75
2021/12/11 03:44:36;;;;;;;;;4.25;2.00;;;;;6.54;100.00;101137.31;5016327;28;45886;-75
2021/12/11 03:47:16;;;;;;;;;6.00;3.75;;;;;6.50;100.00;101134.56;5016083;28;45328;-76
2021/12/11 03:49:42;;;;;;;;;6.25;2.00;;;;;6.51;100.00;101145.75;5015904;28;45313;-75
2021/12/11 03:52:11;;;;;;;;;2.75;2.00;;;;;6.63;100.00;101153.41;5016018;28;45340;-80
2021/12/11 03:54:39;;;;;;;;;2.25;2.25;;;;;6.63;100.00;101135.38;5015782;28;45880;-74
2021/12/11 03:57:11;;;;;;;;;2.50;2.00;;;;;6.68;100.00;101146.84;4996862;28;45522;-74
2021/12/11 03:59:37;;;;;;;;;7.50;3.25;;;;;6.62;100.00;101141.31;5015761;28;45491;-76
2021/12/11 04:02:11;;;;;;;;;1.50;1.50;;;;;6.61;100.00;101140.41;5014144;28;45886;-74
2021/12/11 04:04:48;;;;;;;;;3.00;3.00;;;;;6.66;100.00;101161.31;5015214;28;45833;-73
2021/12/11 04:07:20;;;;;;;;;7.00;3.25;;;;;6.70;100.00;101159.81;5014971;28;45247;-75
2021/12/11 04:09:46;;;;;;;;;0.50;0.50;;;;;6.66;100.00;101145.88;5015401;28;45413;-74
2021/12/11 04:12:14;;;;;;;;;3.25;3.00;;;;;6.69;100.00;101160.63;5015635;28;45293;-74
2021/12/11 04:14:43;;;;;;;;;7.00;5.00;;;;;6.69;100.00;101161.50;4997852;28;45257;-74
2021/12/11 04:17:18;;;;;;;;;6.50;3.50;;;;;6.70;100.00;101160.72;5016133;28;45461;-76
2021/12/11 04:19:45;;;;;;;;;3.00;3.00;;;;;6.69;100.00;101160.63;5015396;28;45409;-76
2021/12/11 04:22:12;;;;;;;;;3.25;2.75;;;;;6.61;100.00;101160.13;5015496;28;45648;-75
2021/12/11 04:24:42;;;;;;;;;4.00;3.00;;;;;6.46;100.00;101155.72;5015631;28;45888;-77
2021/12/11 04:27:12;;;;;;;;;3.00;3.00;;;;;6.53;100.00;101169.00;5015054;28;45511;-74
2021/12/11 04:29:39;;;;;;;;;3.25;3.25;;;;;6.46;100.00;101160.88;5015585;28;46018;-74
2021/12/11 04:32:05;;;;;;;;;2.25;2.25;;;;;6.51;100.00;101171.47;5014443;28;46146;-75
2021/12/11 04:34:32;;;;;;;;;2.00;2.00;;;;;6.49;100.00;101179.09;5014809;28;45169;-75
2021/12/11 04:37:10;;;;;;;;;6.00;1.75;;;;;6.53;100.00;101187.91;5013632;28;45568;-76
2021/12/11 04:39:38;;;;;;;;;2.50;2.00;;;;;6.56;100.00;101187.22;5014421;28;45383;-77
2021/12/11 04:42:15;;;;;;;;;3.75;3.00;;;;;6.53;100.00;101182.75;5014460;28;46177;-81
2021/12/11 04:44:45;;;;;;;;;1.00;1.00;;;;;6.49;100.00;101175.59;5017082;28;45234;-74
2021/12/11 04:47:30;;;;;;;;;4.00;2.75;;;;;6.53;100.00;101193.03;5019184;28;45391;-77
2021/12/11 04:50:00;;;;;;;;;2.75;1.00;;;;;6.48;100.00;101186.69;5018224;28;45320;-75
2021/12/11 04:52:54;;;;;;;;;6.00;3.00;;;;;6.61;100.00;101207.31;5018533;28;45688;-74
2021/12/11 04:58:11;;;;;;;;;3.50;2.25;;;;;6.62;100.00;101203.06;5017126;28;45470;-75
2021/12/11 05:06:22;;;;;;;;;3.00;2.00;;;;;6.50;100.00;101203.13;5017661;28;45338;-74
2021/12/11 05:11:20;;;;;;;;;5.25;2.00;;;;;6.43;100.00;101214.66;5018270;28;45462;-74
2021/12/11 05:13:45;;;;;;;;;1.75;1.75;;;;;6.38;100.00;101216.06;5017314;28;45532;-73
2021/12/11 05:16:15;;;;;;;;;3.75;2.00;;;;;6.28;100.00;101195.63;5018153;28;45524;-75
2021/12/11 05:18:43;;;;;;;;;6.00;4.50;;;;;6.35;100.00;101210.69;5018337;28;45381;-76
2021/12/11 05:21:17;;;;;;;;;5.50;3.00;;;;;6.33;100.00;101200.31;5018606;28;45251;-76
2021/12/11 05:23:44;;;;;;;;;5.00;1.75;;;;;6.41;100.00;101223.06;5017349;28;46578;-78
2021/12/11 05:26:10;;;;;;;;;4.00;2.00;;;;;6.24;100.00;101188.50;5018621;28;45802;-76
2021/12/11 05:28:36;;;;;;;;;6.00;3.50;;;;;6.39;100.00;101233.28;5017032;28;45566;-76
2021/12/11 05:31:05;;;;;;;;;2.00;2.00;;;;;6.34;100.00;101232.97;5018706;28;45550;-75
2021/12/11 05:33:31;;;;;;;;;3.00;3.00;;;;;6.23;100.00;101220.13;5018069;28;45389;-75
2021/12/11 05:35:57;;;;;;;;;4.50;4.50;;;;;6.32;100.00;101249.03;4999704;28;45535;-73
2021/12/11 05:38:25;;;;;;;;;3.25;2.75;;;;;6.25;100.00;101252.00;5017576;28;45384;-72
2021/12/11 05:40:54;;;;;;;;;7.00;4.25;;;;;6.11;100.00;101248.47;5017301;28;45548;-75
2021/12/11 05:43:21;;;;;;;;;6.50;3.50;;;;;6.02;100.00;101252.19;4999494;28;45403;-72
2021/12/11 05:45:47;;;;;;;;;5.00;4.50;;;;;5.98;100.00;101259.53;5016966;28;45750;-72
2021/12/11 05:48:14;;;;;;;;;2.75;2.00;;;;;5.97;100.00;101263.78;5017837;28;45526;-72
2021/12/11 05:50:44;;;;;;;;;4.00;2.75;;;;;6.02;100.00;101280.47;5000078;28;45403;-72
2021/12/11 05:53:10;;;;;;;;;4.00;4.00;;;;;6.04;100.00;101284.03;5017415;28;45472;-73
2021/12/11 05:55:38;;;;;;;;;6.00;4.00;;;;;6.06;100.00;101291.84;5016126;28;45495;-72
2021/12/11 05:58:11;;;;;;;;;5.50;5.50;;;;;5.97;100.00;101292.03;5016545;28;45228;-73
2021/12/11 06:00:43;;;;;;;;;3.25;3.00;;;;;6.04;100.00;101311.41;5015946;28;45449;-73
2021/12/11 06:03:09;;;;;;;;;4.00;2.75;;;;;6.04;100.00;101316.53;5017783;28;45489;-72
2021/12/11 06:05:35;;;;;;;;;5.25;1.75;;;;;6.12;100.00;101319.66;5016047;28;45403;-73
2021/12/11 06:08:03;;;;;;;;;7.00;3.00;;;;;6.08;100.00;101316.00;4999436;28;45415;-72
2021/12/11 06:10:29;;;;;;;;;2.00;2.00;;;;;6.09;100.00;101325.50;5017521;28;45471;-73
2021/12/11 06:12:58;;;;;;;;;4.00;2.25;;;;;6.14;100.00;101329.25;5016830;28;46202;-73
2021/12/11 06:15:24;;;;;;;;;1.25;1.25;;;;;6.05;100.00;101315.75;5017459;28;45401;-72
2021/12/11 06:17:50;;;;;;;;;6.75;4.50;;;;;6.13;100.00;101329.16;5016940;28;45459;-72
2021/12/11 06:20:23;;;;;;;;;4.00;3.00;;;;;6.16;100.00;101330.28;5017447;28;45494;-72
2021/12/11 06:22:49;;;;;;;;;5.50;2.50;;;;;6.17;100.00;101326.00;5016873;28;46414;-73
2021/12/11 06:25:28;;;;;;;;;5.00;2.75;;;;;6.12;100.00;101325.69;5015773;28;45415;-73
2021/12/11 06:27:55;;;;;;;;;6.00;4.00;;;;;6.20;100.00;101333.94;5016710;28;45218;-71
2021/12/11 06:30:22;;;;;;;;;3.75;3.00;;;;;6.19;100.00;101335.63;5017349;28;45466;-72
2021/12/11 06:32:49;;;;;;;;;4.00;4.00;;;;;6.17;100.00;101338.84;5016844;28;46063;-80
2021/12/11 06:35:36;;;;;;;;;6.25;4.00;;;;;6.21;100.00;101340.00;4999157;28;45791;-74
2021/12/11 06:38:03;;;;;;;;;4.50;3.00;;;;;6.15;100.00;101333.63;5016953;28;45392;-72
2021/12/11 06:40:29;;;;;;;;;4.00;3.75;;;;;6.21;100.00;101345.16;5017565;28;45251;-76
2021/12/11 06:42:56;;;;;;;;;6.00;4.00;;;;;6.17;100.00;101344.91;5016658;28;46113;-74
2021/12/11 06:45:23;;;;;;;;;2.00;2.00;;;;;6.23;100.00;101356.41;5016914;28;45191;-75
2021/12/11 06:47:49;;;;;;;;;9.25;6.25;;;;;6.23;100.00;101358.97;5016289;28;45435;-74
2021/12/11 06:50:15;;;;;;;;;7.50;6.75;;;;;6.21;100.00;101368.28;5016433;28;45430;-75
2021/12/11 06:52:42;;;;;;;;;9.25;9.25;;;;;6.17;100.00;101365.47;5016390;28;45847;-75
2021/12/11 06:55:08;;;;;;;;;8.50;7.50;;;;;6.16;100.00;101373.06;5016744;28;46058;-75
2021/12/11 06:57:34;;;;;;;;;8.00;8.00;;;;;6.23;100.00;101377.88;5015998;28;45485;-74
2021/12/11 06:59:59;;;;;;;;;8.75;7.00;;;;;6.22;100.00;101390.59;5016353;28;45219;-74
2021/12/11 07:02:25;;;;;;;;;10.00;8.00;;;;;6.12;100.00;101384.81;5014901;28;46645;-74
2021/12/11 07:04:54;;;;;;;;;7.50;7.50;;;;;6.12;100.00;101395.09;4997257;28;45392;-78
2021/12/11 07:07:24;;;;;;;;;6.75;6.75;;;;;6.10;100.00;101401.78;4997809;28;45436;-74
2021/12/11 07:09:52;;;;;;;;;3.75;3.75;;;;;6.08;100.00;101400.81;5011618;28;45996;-76
2021/12/11 07:12:19;;;;;;;;;1.75;1.00;;;;;5.99;100.00;101405.25;5015365;28;45229;-74
2021/12/11 07:14:46;;;;;;;;;4.25;4.25;;;;;6.00;100.00;101412.19;5016186;28;45846;-74
2021/12/11 07:17:12;;;;;;;;;10.75;8.25;;;;;5.98;100.00;101419.78;5015809;28;45364;-73
2021/12/11 07:19:38;;;;;;;;;7.50;5.00;;;;;5.87;100.00;101408.72;5016265;28;45554;-75
2021/12/11 07:22:04;;;;;;;;;8.25;8.25;;;;;5.94;100.00;101428.03;4996275;28;45448;-79
2021/12/11 07:24:45;;;;;;;;;4.25;4.25;;;;;5.94;100.00;101433.16;4996302;28;45261;-75
2021/12/11 07:27:11;;;;;;;;;6.00;6.00;;;;;5.93;100.00;101438.22;4996745;28;45333;-75
2021/12/11 07:29:39;;;;;;;;;6.50;5.50;;;;;5.90;100.00;101444.03;5018435;28;45562;-76
2021/12/11 07:32:05;;;;;;;;;11.75;10.75;;;;;5.94;100.00;101446.00;5013920;28;46170;-75
2021/12/11 07:34:31;;;;;;;;;5.50;5.50;;;;;5.90;100.00;101428.59;5014676;28;45392;-74
2021/12/11 07:36:58;;;;;;;;;10.25;6.00;;;;;6.07;100.00;101446.97;4997752;28;45399;-74
2021/12/11 07:39:24;;;;;;;;;9.00;8.00;;;;;6.08;100.00;101449.66;5015934;28;45466;-74
2021/12/11 07:41:53;;;;;;;;;9.25;6.00;;;;;6.08;100.00;101448.75;5015614;28;46566;-73
2021/12/11 07:44:19;;;;;;;;;6.75;5.50;;;;;6.06;100.00;101440.94;5015699;28;45364;-74
2021/12/11 07:46:45;;;;;;;;;9.25;7.00;;;;;6.17;100.00;101467.41;5015682;28;45265;-76
2021/12/11 07:49:11;;;;;;;;;6.00;6.00;;;;;6.20;100.00;101475.38;5016487;28;45531;-74
2021/12/11 07:51:38;;;;;;;;;4.00;4.00;;;;;6.15;100.00;101469.88;5015735;28;46073;-74
2021/12/11 07:54:05;;;;;;;;;4.50;4.00;;;;;6.25;100.00;101475.69;5015815;28;45715;-74
2021/12/11 07:56:31;;;;;;;;;9.50;7.00;;;;;6.26;100.00;101480.06;4997344;28;45439;-77
2021/12/11 07:58:59;;;;;;;;;8.25;6.00;;;;;6.29;100.00;101482.84;5015246;28;45452;-75
2021/12/11 08:01:27;;;;;;;;;6.00;6.00;;;;;6.28;100.00;101492.22;5015509;28;45183;-75
2021/12/11 08:03:57;;;;;;;;;7.00;7.00;;;;;6.25;100.00;101483.41;5015254;28;45901;-74
2021/12/11 08:06:23;;;;;;;;;3.25;3.25;;;;;6.33;100.00;101497.72;5015341;28;45360;-75
2021/12/11 08:08:49;;;;;;;;;9.25;7.25;;;;;6.31;100.00;101499.31;5014867;28;45278;-75
2021/12/11 08:11:17;;;;;;;;;8.00;8.00;;;;;6.35;100.00;101512.50;5014169;28;47879;-75
2021/12/11 08:13:45;;;;;;;;;8.75;7.00;;;;;6.37;100.00;101515.16;5015086;28;45825;-76
2021/12/11 08:16:14;;;;;;;;;12.75;6.00;;;;;6.35;100.00;101509.00;5015769;28;45389;-76
2021/12/11 08:18:40;;;;;;;;;7.00;7.00;;;;;6.39;100.00;101523.91;5016077;28;45508;-75
2021/12/11 08:21:06;;;;;;;;;8.75;7.00;;;;;6.40;100.00;101523.13;5018322;28;45943;-75
2021/12/11 08:23:32;;;;;;;;;11.75;7.00;;;;;6.39;100.00;101522.97;5018793;28;45487;-76
2021/12/11 08:25:59;;;;;;;;;8.00;6.75;;;;;6.42;100.00;101520.66;5018749;28;45374;-76
2021/12/11 08:28:29;;;;;;;;;8.00;8.00;;;;;6.49;100.00;101525.44;5018968;28;45400;-76
2021/12/11 08:30:57;;;;;;;;;9.00;7.50;;;;;6.43;100.00;101515.59;5001159;28;45905;-75
2021/12/11 08:33:23;;;;;;;;;11.50;8.75;;;;;6.58;100.00;101538.09;5019331;28;45951;-82
2021/12/11 08:35:50;;;;;;;;;10.00;7.00;;;;;6.59;100.00;101530.47;5019124;28;45383;-78
2021/12/11 08:38:17;;;;;;;;;10.00;7.00;;;;;6.60;100.00;101521.09;5002436;28;45624;-80
2021/12/11 08:40:47;;;;;;;;;8.00;7.00;;;;;6.73;100.00;101525.44;5024845;28;45271;-76
2021/12/11 08:43:15;;;;;;;;;9.75;9.00;;;;;6.54;100.00;101487.19;5019520;28;45806;-76
2021/12/11 08:45:57;;;;;;;;;15.25;14.00;;;;;6.78;100.00;101535.28;5019158;28;45399;-75
2021/12/11 08:48:26;;;;;;;;;11.75;9.75;;;;;6.82;100.00;101546.69;5017676;28;45525;-76
2021/12/11 08:50:56;;;;;;;;;7.50;7.25;;;;;6.83;100.00;101548.47;5000401;28;46719;-76
2021/12/11 08:53:22;;;;;;;;;10.00;9.00;;;;;6.88;100.00;101551.38;5018730;28;46025;-75
2021/12/11 08:55:53;;;;;;;;;8.25;7.25;;;;;6.90;100.00;101560.09;5017897;28;45354;-73
2021/12/11 08:58:20;;;;;;;;;11.50;8.75;;;;;6.90;100.00;101554.97;5015807;28;45177;-74
2021/12/11 09:01:01;;;;;;;;;13.75;9.25;;;;;6.88;100.00;101544.56;4999294;28;48274;-75
2021/12/11 09:03:56;;;;;;;;;12.25;9.75;;;;;6.97;100.00;101565.81;5018245;28;45352;-76
2021/12/11 09:06:32;;;;;;;;;10.50;9.00;;;;;7.01;100.00;101571.19;5017381;28;45382;-78
2021/12/11 09:09:12;;;;;;;;;13.25;13.25;;;;;6.94;100.00;101551.84;5018631;28;45504;-81
2021/12/11 09:11:55;;;;;;;;;12.00;10.00;;;;;7.06;100.00;101564.66;5018815;28;46194;-76
2021/12/11 09:14:31;;;;;;;;;11.75;10.25;;;;;7.09;100.00;101583.81;5018567;28;45764;-75
2021/12/11 09:17:10;;;;;;;;;12.75;8.50;;;;;7.07;100.00;101569.03;5016844;28;45381;-81
2021/12/11 09:19:45;;;;;;;;;11.75;10.00;;;;;7.19;100.00;101587.94;5018676;28;45390;-84
2021/12/11 09:22:18;;;;;;;;;11.75;9.50;;;;;7.19;100.00;101592.19;5000559;28;46821;-79
2021/12/11 09:25:07;;;;;;;;;11.50;9.50;;;;;7.10;100.00;101569.28;5017780;28;45503;-77
2021/12/11 09:27:59;;;;;;;;;16.00;12.00;;;;;7.24;100.00;101609.75;4999187;28;45517;-79
2021/12/11 09:30:48;;;;;;;;;14.75;10.25;;;;;7.26;100.00;101607.31;5017352;28;45443;-78
2021/12/11 09:33:25;;;;;;;;;10.00;8.00;;;;;7.32;100.00;101615.44;5017924;28;45515;-78
2021/12/11 09:35:58;;;;;;;;;11.00;8.00;;;;;7.32;100.00;101612.88;5017578;28;45878;-77
2021/12/11 09:38:29;;;;;;;;;7.75;7.25;;;;;7.38;100.00;101628.78;5018018;28;45396;-77
2021/12/11 09:40:55;;;;;;;;;11.50;10.75;;;;;7.39;100.00;101630.56;5018250;28;45447;-82
2021/12/11 09:43:43;;;;;;;;;13.50;10.25;;;;;7.38;100.00;101633.94;5017691;28;45440;-79
2021/12/11 09:46:12;;;;;;;;;9.25;9.25;;;;;7.31;100.00;101617.94;5016313;28;45366;-80
2021/12/11 09:48:40;;;;;;;;;9.50;9.00;;;;;7.39;100.00;101627.09;5016995;28;45397;-79
2021/12/11 09:51:11;;;;;;;;;12.25;9.25;;;;;7.32;100.00;101623.19;5016705;28;45523;-77
2021/12/11 09:53:44;;;;;;;;;15.75;12.25;;;;;7.34;100.00;101623.31;5019146;28;45289;-74
2021/12/11 09:56:24;;;;;;;;;10.75;8.50;;;;;7.40;100.00;101639.19;5017080;28;45321;-83
2021/12/11 09:58:50;;;;;;;;;9.00;7.50;;;;;7.40;100.00;101640.06;5017365;28;45388;-79
2021/12/11 10:01:28;;;;;;;;;8.75;8.75;;;;;7.46;100.00;101649.03;5017449;28;45454;-79
2021/12/11 10:04:05;;;;;;;;;13.50;10.00;;;;;7.48;100.00;101657.78;5016875;28;45427;-78
2021/12/11 10:06:42;;;;;;;;;11.25;9.50;;;;;7.42;100.00;101635.03;5017198;28;45258;-79
2021/12/11 10:09:18;;;;;;;;;7.50;7.50;;;;;7.55;100.00;101653.16;5017541;28;45394;-78
2021/12/11 10:11:55;;;;;;;;;9.00;7.75;;;;;7.64;100.00;101662.34;5017198;28;45516;-78
2021/12/11 10:14:26;;;;;;;;;7.75;7.00;;;;;7.63;100.00;101665.69;5017012;28;45414;-79
2021/12/11 10:16:56;;;;;;;;;16.25;11.25;;;;;7.65;100.00;101662.41;5017629;28;45426;-79
2021/12/11 10:19:29;;;;;;;;;9.25;8.50;;;;;7.67;100.00;101660.84;5019206;28;45392;-80
2021/12/11 10:22:05;;;;;;;;;13.00;8.75;;;;;7.72;100.00;101654.31;5010942;28;45447;-75
2021/12/11 10:24:33;;;;;;;;;10.50;10.50;;;;;7.74;100.00;101657.03;4998226;28;45831;-80
2021/12/11 10:27:01;;;;;;;;;6.00;5.00;;;;;7.83;100.00;101661.94;5015847;28;45905;-78
2021/12/11 10:29:27;;;;;;;;;8.50;7.25;;;;;7.87;100.00;101662.25;5016994;28;45298;-78
2021/12/11 10:31:57;;;;;;;;;6.50;6.00;;;;;7.93;100.00;101660.88;5016664;28;45567;-78
2021/12/11 10:34:29;;;;;;;;;9.00;8.00;;;;;7.95;100.00;101659.31;5016609;28;46421;-78
2021/12/11 10:37:07;;;;;;;;;7.25;4.00;;;;;7.94;100.00;101665.25;5016347;28;45410;-77
2021/12/11 10:39:34;;;;;;;;;6.25;5.25;;;;;7.97;100.00;101666.34;5016995;28;45278;-78
2021/12/11 10:42:00;;;;;;;;;5.00;5.00;;;;;7.97;100.00;101666.34;5016383;28;45392;-78
2021/12/11 10:44:32;;;;;;;;;4.75;3.00;;;;;7.97;100.00;101674.09;5016698;28;45406;-77
2021/12/11 10:47:11;;;;;;;;;5.00;3.75;;;;;7.96;100.00;101669.72;5015838;28;45550;-77
2021/12/11 10:49:38;;;;;;;;;7.00;3.75;;;;;7.95;100.00;101665.34;5017036;28;45239;-78
2021/12/11 10:52:19;;;;;;;;;5.00;3.00;;;;;7.98;100.00;101662.09;5016267;28;45325;-78
2021/12/11 10:54:46;;;;;;;;;7.50;4.75;;;;;7.97;100.00;101661.19;5019652;28;46086;-80
2021/12/11 10:57:14;;;;;;;;;4.00;4.00;;;;;8.01;100.00;101662.28;5020036;28;45384;-78
2021/12/11 10:59:43;;;;;;;;;8.50;6.75;;;;;8.08;100.00;101679.09;5017693;28;45622;-87
2021/12/11 11:02:20;;;;;;;;;6.25;4.25;;;;;8.04;100.00;101678.00;5016965;28;45578;-82
2021/12/11 11:04:52;;;;;;;;;8.75;6.50;;;;;8.03;100.00;101674.53;5016497;28;46143;-80
2021/12/11 11:07:19;;;;;;;;;7.00;5.25;;;;;8.08;100.00;101674.84;5015318;28;45794;-78
2021/12/11 11:09:48;;;;;;;;;4.00;4.00;;;;;8.11;100.00;101679.31;5015610;28;45240;-78
2021/12/11 11:12:20;;;;;;;;;8.00;5.50;;;;;8.10;100.00;101675.81;5014999;28;45489;-78
2021/12/11 11:14:47;;;;;;;;;8.25;5.00;;;;;8.08;100.00;101666.19;5015739;28;46638;-78
2021/12/11 11:17:17;;;;;;;;;7.50;4.50;;;;;8.14;100.00;101676.94;5016261;28;45405;-76
2021/12/11 11:19:43;;;;;;;;;5.00;4.00;;;;;8.18;100.00;101684.09;5015899;28;45423;-77
2021/12/11 11:22:18;;;;;;;;;3.25;3.25;;;;;8.12;100.00;101676.81;5016488;28;45265;-76
2021/12/11 11:24:54;;;;;;;;;5.75;4.25;;;;;8.06;100.00;101660.94;5015475;28;45403;-78
2021/12/11 11:27:20;;;;;;;;;7.75;4.25;;;;;8.17;100.00;101669.41;5015207;28;45486;-76
2021/12/11 11:29:47;;;;;;;;;9.50;4.75;;;;;8.19;100.00;101663.59;5015656;28;45439;-74
2021/12/11 11:32:19;;;;;;;;;3.75;3.75;;;;;8.29;100.00;101664.19;4996941;28;45598;-78
2021/12/11 11:34:45;;;;;;;;;6.50;4.00;;;;;8.31;100.00;101672.94;5014946;28;46364;-76
2021/12/11 11:37:17;;;;;;;;;6.25;5.25;;;;;8.34;100.00;101676.63;4999644;28;45609;-74
2021/12/11 11:39:43;;;;;;;;;9.25;7.75;;;;;8.37;100.00;101679.38;5017236;28;45500;-75
2021/12/11 11:42:16;;;;;;;;;7.75;6.00;;;;;8.43;100.00;101675.44;5016073;28;45313;-73
2021/12/11 11:44:45;;;;;;;;;8.25;5.00;;;;;8.30;100.00;101650.50;5014065;28;45451;-74
2021/12/11 11:47:13;;;;;;;;;6.75;4.50;;;;;8.50;100.00;101690.56;5015809;28;46012;-76
2021/12/11 11:49:39;;;;;;;;;10.00;8.00;;;;;8.46;100.00;101679.13;5016086;28;45524;-86
2021/12/11 11:52:16;;;;;;;;;5.25;3.50;;;;;8.48;100.00;101685.31;5016193;28;45470;-75